Time;durP1;ratioP1;P1;durP2;ratioP2;P2;SDS_P1;SDS_P2;PMS_P1;PMS_P2;Temp;Humidity;BMP_temperature;BMP_pressure;BME280_temperature;BME280_humidity;BME280_pressure;Samples;Min_cycle;Max_cycle;Signal;HPM_P1;HPM_P2
2024/01/15 00:01:16;;;;;;;11.85;2.88;;;;;;;1.62;100.00;98176.09;5047848;28;20041;-76
2024/01/15 00:03:42;;;;;;;12.57;3.05;;;;;;;1.62;100.00;98175.28;5041273;28;20037;-76
2024/01/15 00:06:07;;;;;;;14.30;1.97;;;;;;;1.64;100.00;98160.97;5023503;28;20043;-75
2024/01/15 00:08:32;;;;;;;38.15;4.38;;;;;;;1.69;100.00;98139.44;5049169;28;20398;-76
2024/01/15 00:10:58;;;;;;;9.55;2.17;;;;;;;1.58;100.00;98124.00;5044475;28;20029;-76
2024/01/15 00:13:23;;;;;;;17.25;3.70;;;;;;;1.56;100.00;98157.53;5033736;28;20039;-75
2024/01/15 00:15:48;;;;;;;9.27;2.00;;;;;;;1.65;100.00;98175.75;5052456;28;20060;-76
2024/01/15 00:18:14;;;;;;;19.45;3.67;;;;;;;1.48;100.00;98167.09;5044449;28;20052;-73
2024/01/15 00:20:39;;;;;;;15.93;2.90;;;;;;;1.57;100.00;98201.25;5048879;28;20484;-74
2024/01/15 00:23:04;;;;;;;25.42;2.70;;;;;;;1.54;100.00;98181.38;5047029;23;20053;-76
2024/01/15 00:25:30;;;;;;;21.85;2.10;;;;;;;1.51;100.00;98186.97;5013904;28;20042;-76
2024/01/15 00:27:55;;;;;;;15.13;4.28;;;;;;;1.61;100.00;98199.94;5018870;28;20102;-76
2024/01/15 00:30:20;;;;;;;29.63;5.32;;;;;;;1.58;100.00;98202.91;5003269;28;20038;-76
2024/01/15 00:32:46;;;;;;;15.55;2.25;;;;;;;1.58;100.00;98206.34;5012539;28;20126;-76
2024/01/15 00:35:11;;;;;;;13.40;2.73;;;;;;;1.57;100.00;98222.28;5003331;28;20107;-76
2024/01/15 00:37:37;;;;;;;16.10;1.98;;;;;;;1.32;100.00;98224.94;5006833;28;20323;-76
2024/01/15 00:40:03;;;;;;;14.48;2.15;;;;;;;1.49;100.00;98267.81;4989349;28;20041;-77
2024/01/15 00:42:28;;;;;;;;;;;;;;;1.52;100.00;98270.13;4990301;28;20041;-76
2024/01/15 00:44:54;;;;;;;13.65;3.30;;;;;;;1.55;100.00;98282.13;4984860;28;19921;-76
2024/01/15 00:47:19;;;;;;;8.15;1.75;;;;;;;1.49;100.00;98283.59;4988256;28;20050;-75
2024/01/15 00:49:45;;;;;;;11.57;1.90;;;;;;;1.50;100.00;98280.00;4984935;28;20172;-77
2024/01/15 00:52:10;;;;;;;12.93;2.70;;;;;;;1.53;100.00;98286.75;4978453;28;20096;-76
2024/01/15 00:54:35;;;;;;;12.95;2.05;;;;;;;1.54;100.00;98297.06;4980343;28;20038;-77
2024/01/15 00:57:01;;;;;;;8.35;2.03;;;;;;;1.52;100.00;98291.16;4995753;28;20041;-78
2024/01/15 00:59:26;;;;;;;14.43;3.50;;;;;;;1.45;100.00;98291.00;4983084;28;20037;-77
2024/01/15 01:01:51;;;;;;;12.10;1.77;;;;;;;1.53;100.00;98282.28;5004613;28;20510;-77
2024/01/15 01:04:17;;;;;;;19.73;3.80;;;;;;;1.48;100.00;98282.78;4987922;28;20740;-77
2024/01/15 01:06:42;;;;;;;13.32;3.63;;;;;;;1.61;100.00;98311.22;4985005;28;20030;-77
2024/01/15 01:09:07;;;;;;;15.27;3.78;;;;;;;1.64;100.00;98305.63;4976984;28;20042;-78
2024/01/15 01:11:33;;;;;;;16.73;3.88;;;;;;;1.71;100.00;98302.31;4975541;28;20970;-76
2024/01/15 01:13:58;;;;;;;19.08;2.80;;;;;;;1.69;100.00;98295.44;5000749;28;20840;-77
2024/01/15 01:16:23;;;;;;;14.43;2.67;;;;;;;1.77;100.00;98305.13;5003154;28;20128;-76
2024/01/15 01:18:49;;;;;;;16.77;1.75;;;;;;;1.78;100.00;98287.53;4989421;28;20037;-76
2024/01/15 01:21:33;;;;;;;22.40;1.98;;;;;;;1.74;100.00;98273.91;4990819;28;20091;-76
2024/01/15 01:24:17;;;;;;;10.45;2.00;;;;;;;1.83;100.00;98253.66;4983449;28;20095;-76
2024/01/15 01:27:01;;;;;;;16.55;2.55;;;;;;;1.83;100.00;98243.13;5000999;28;20056;-76
2024/01/15 01:29:45;;;;;;;26.17;3.47;;;;;;;1.84;100.00;98234.25;4997423;28;20417;-75
2024/01/15 01:32:29;;;;;;;16.42;2.80;;;;;;;1.82;100.00;98215.97;4990988;28;20617;-76
2024/01/15 01:35:13;;;;;;;17.95;3.58;;;;;;;1.76;100.00;98181.66;4989984;28;20046;-76
2024/01/15 01:37:57;;;;;;;23.33;5.22;;;;;;;1.83;100.00;98178.19;4994017;28;20097;-77
2024/01/15 01:40:41;;;;;;;17.23;3.70;;;;;;;1.82;100.00;98159.91;5000052;28;20045;-75
2024/01/15 01:43:25;;;;;;;20.73;2.97;;;;;;;1.84;100.00;98148.25;4984687;28;20107;-76
2024/01/15 01:46:09;;;;;;;27.88;5.30;;;;;;;1.71;100.00;98119.03;5006620;28;20050;-76
2024/01/15 01:48:55;;;;;;;12.45;2.67;;;;;;;1.71;100.00;98123.44;4978890;28;20130;-76
2024/01/15 01:51:39;;;;;;;19.02;3.05;;;;;;;1.65;100.00;98103.94;4993453;28;20149;-75
2024/01/15 01:54:25;;;;;;;24.63;3.90;;;;;;;1.71;100.00;98086.63;5005137;28;20609;-77
2024/01/15 01:57:11;;;;;;;22.63;4.32;;;;;;;1.72;100.00;98065.44;4996318;28;20065;-76
2024/01/15 01:59:56;;;;;;;16.23;2.83;;;;;;;1.64;100.00;98047.88;5004135;28;20099;-77
2024/01/15 02:02:40;;;;;;;19.65;3.42;;;;;;;1.60;100.00;97993.97;4999635;28;20052;-75
2024/01/15 02:05:25;;;;;;;24.50;4.45;;;;;;;1.65;100.00;97970.59;5004081;28;20060;-75
2024/01/15 02:07:51;;;;;;;27.25;3.83;;;;;;;1.63;100.00;97941.03;5008975;28;20476;-76
2024/01/15 02:10:16;;;;;;;19.25;3.78;;;;;;;1.66;100.00;97932.81;4977720;28;20054;-76
2024/01/15 02:12:42;;;;;;;11.32;3.25;;;;;;;1.58;100.00;97895.22;4998963;28;20029;-77
2024/01/15 02:15:07;;;;;;;;;;;;;;;1.60;100.00;97870.38;4983329;28;20041;-76
2024/01/15 02:17:33;;;;;;;11.15;2.22;;;;;;;1.57;100.00;97836.53;4989553;28;19921;-76
2024/01/15 02:19:58;;;;;;;27.33;4.40;;;;;;;1.52;100.00;97815.19;4982071;28;20061;-76
2024/01/15 02:22:23;;;;;;;12.93;2.53;;;;;;;1.57;100.00;97791.00;5011903;28;20039;-75
2024/01/15 02:24:49;;;;;;;11.55;4.10;;;;;;;1.48;100.00;97761.34;5000893;28;20033;-75
2024/01/15 02:27:15;;;;;;;19.08;2.67;;;;;;;1.50;100.00;97769.03;4980012;28;20500;-76
2024/01/15 02:29:40;;;;;;;29.90;5.45;;;;;;;1.50;100.00;97771.66;4999107;28;20024;-76
2024/01/15 02:32:06;;;;;;;25.15;3.55;;;;;;;1.50;100.00;97758.53;5007965;28;20499;-76
2024/01/15 02:34:32;;;;;;;16.55;2.80;;;;;;;1.58;100.00;97754.03;4987030;28;20465;-75
2024/01/15 02:36:57;;;;;;;;;;;;;;;1.48;100.00;97756.09;5002674;28;20052;-76
2024/01/15 02:39:23;;;;;;;20.20;2.33;;;;;;;1.55;100.00;97730.72;4996949;28;20761;-77
2024/01/15 02:41:48;;;;;;;16.08;2.42;;;;;;;1.46;100.00;97724.72;4987047;28;20033;-76
2024/01/15 02:44:13;;;;;;;21.27;3.42;;;;;;;1.47;100.00;97755.28;4992471;28;20034;-75
2024/01/15 02:46:39;;;;;;;16.15;3.40;;;;;;;1.54;100.00;97770.31;4974131;28;20038;-75
2024/01/15 02:49:04;;;;;;;17.50;2.60;;;;;;;1.54;100.00;97778.22;4999543;28;20034;-76
2024/01/15 02:51:29;;;;;;;17.03;4.57;;;;;;;1.54;100.00;97789.53;4966589;28;20535;-76
2024/01/15 02:53:55;;;;;;;21.45;3.28;;;;;;;1.65;100.00;97810.16;4987338;28;20321;-76
2024/01/15 02:56:20;;;;;;;18.13;2.67;;;;;;;1.63;100.00;97821.88;4982807;28;20042;-75
2024/01/15 02:58:45;;;;;;;33.03;5.05;;;;;;;1.78;100.00;97795.59;4967018;28;20124;-77
2024/01/15 03:01:11;;;;;;;16.73;3.45;;;;;;;1.90;100.00;97807.34;4996229;28;20405;-75
2024/01/15 03:03:36;;;;;;;26.20;3.60;;;;;;;1.85;100.00;97801.78;4981584;28;20117;-77
2024/01/15 03:06:02;;;;;;;14.43;4.20;;;;;;;1.73;100.00;97779.53;4962976;28;20038;-76
2024/01/15 03:08:29;;;;;;;26.13;5.90;;;;;;;1.89;100.00;97790.72;4978278;28;20084;-76
2024/01/15 03:10:54;;;;;;;20.35;3.83;;;;;;;1.80;100.00;97789.19;4983577;28;20026;-76
2024/01/15 03:13:19;;;;;;;16.02;2.90;;;;;;;1.59;100.00;97820.56;4999222;28;20030;-75
2024/01/15 03:15:45;;;;;;;20.67;2.97;;;;;;;1.62;100.00;97864.94;4965733;28;20025;-76
2024/01/15 03:18:10;;;;;;;25.73;3.08;;;;;;;1.46;100.00;97915.84;4979237;28;20281;-75
2024/01/15 03:20:35;;;;;;;19.75;4.50;;;;;;;1.48;100.00;97961.19;4993357;28;20125;-76
2024/01/15 03:23:01;;;;;;;24.77;4.40;;;;;;;1.44;100.00;98012.47;4986075;28;20034;-76
2024/01/15 03:25:26;;;;;;;28.05;3.33;;;;;;;1.39;100.00;98033.19;4977465;28;20026;-76
2024/01/15 03:27:51;;;;;;;13.77;2.58;;;;;;;1.34;100.00;98075.75;4967322;28;20067;-76
2024/01/15 03:30:17;;;;;;;15.73;3.63;;;;;;;1.31;100.00;98112.06;4998160;28;20108;-75
2024/01/15 03:32:42;;;;;;;16.05;3.35;;;;;;;1.28;100.00;98123.75;4988957;28;20029;-76
2024/01/15 03:35:08;;;;;;;18.52;3.00;;;;;;;1.14;100.00;98127.88;5000684;28;20108;-75
2024/01/15 03:37:33;;;;;;;16.75;2.78;;;;;;;1.22;100.00;98180.44;5001047;28;20248;-76
2024/01/15 03:39:58;;;;;;;19.60;3.90;;;;;;;1.25;100.00;98169.59;4976542;28;20026;-75
2024/01/15 03:42:24;;;;;;;15.25;3.22;;;;;;;1.14;100.00;98172.53;5011283;28;20634;-76
2024/01/15 03:44:49;;;;;;;17.95;3.53;;;;;;;1.07;100.00;98176.81;4999373;28;20054;-75
2024/01/15 03:47:14;;;;;;;17.20;4.50;;;;;;;1.03;100.00;98167.63;4966184;28;20030;-75
2024/01/15 03:49:40;;;;;;;18.23;2.50;;;;;;;1.08;100.00;98165.34;5001539;28;20044;-76
2024/01/15 03:52:05;;;;;;;15.40;2.30;;;;;;;1.04;100.00;98135.13;4983903;28;20080;-76
2024/01/15 03:54:30;;;;;;;17.45;3.17;;;;;;;1.01;100.00;98117.88;4979148;28;20030;-76
2024/01/15 03:56:56;;;;;;;11.68;2.60;;;;;;;1.02;100.00;98105.56;4981056;28;20034;-77
2024/01/15 03:59:21;;;;;;;9.73;2.03;;;;;;;0.98;100.00;98109.50;4965401;28;20069;-77
2024/01/15 04:01:50;;;;;;;19.58;4.10;;;;;;;0.92;100.00;98086.53;4997710;28;20288;-76
2024/01/15 04:04:17;;;;;;;18.45;1.90;;;;;;;0.98;100.00;98104.22;4998560;28;20400;-76
2024/01/15 04:06:42;;;;;;;16.45;2.42;;;;;;;1.10;100.00;98094.19;5013181;28;20029;-76
2024/01/15 04:09:08;;;;;;;27.00;4.15;;;;;;;1.14;100.00;98064.78;4975045;28;20153;-76
2024/01/15 04:11:33;;;;;;;12.15;1.83;;;;;;;1.14;100.00;98028.00;4997067;28;20037;-76
2024/01/15 04:13:58;;;;;;;7.10;1.83;;;;;;;1.15;100.00;98015.72;4988739;28;20041;-75
2024/01/15 04:16:24;;;;;;;14.63;2.33;;;;;;;1.13;100.00;97989.59;4971544;28;20407;-75
2024/01/15 04:18:49;;;;;;;20.95;3.65;;;;;;;1.26;100.00;97994.28;4966594;28;20030;-76
2024/01/15 04:21:17;;;;;;;19.77;2.50;;;;;;;1.23;100.00;97974.41;4971202;28;20093;-76
2024/01/15 04:23:42;;;;;;;19.65;3.63;;;;;;;1.26;100.00;97963.59;4990741;28;20524;-77
2024/01/15 04:26:07;;;;;;;9.30;2.42;;;;;;;1.16;100.00;97936.69;5004934;28;20283;-74
2024/01/15 04:28:33;;;;;;;14.65;2.30;;;;;;;1.07;100.00;97924.56;4978834;28;20034;-75
2024/01/15 04:30:58;;;;;;;7.13;2.27;;;;;;;1.20;100.00;97918.78;4961837;28;20040;-76
2024/01/15 04:33:23;;;;;;;13.52;2.38;;;;;;;1.18;100.00;97908.41;5010710;28;20334;-76
2024/01/15 04:35:49;;;;;;;16.15;2.97;;;;;;;1.20;100.00;97908.25;4995341;28;20030;-75
2024/01/15 04:38:14;;;;;;;15.50;2.88;;;;;;;1.13;100.00;97855.56;4995185;28;20503;-75
2024/01/15 04:40:40;;;;;;;9.55;1.65;;;;;;;1.25;100.00;97820.00;5012390;28;20026;-75
2024/01/15 04:43:06;;;;;;;24.35;3.20;;;;;;;1.29;100.00;97782.84;4995316;28;20496;-75
2024/01/15 04:45:31;;;;;;;16.60;2.60;;;;;;;1.32;100.00;97761.50;4996607;28;20057;-76
2024/01/15 04:47:57;;;;;;;15.10;2.35;;;;;;;1.24;100.00;97692.22;4980055;28;20455;-77
2024/01/15 04:50:23;;;;;;;14.98;4.00;;;;;;;1.41;100.00;97650.00;4968422;28;20034;-75
2024/01/15 04:52:49;;;;;;;21.17;2.40;;;;;;;1.49;100.00;97602.59;4997093;28;20698;-74
2024/01/15 04:55:15;;;;;;;15.48;3.25;;;;;;;1.50;100.00;97550.81;4985140;28;20505;-76
2024/01/15 04:57:40;;;;;;;9.57;2.45;;;;;;;1.58;100.00;97540.22;5002524;28;20064;-76
2024/01/15 05:00:08;;;;;;;12.75;2.40;;;;;;;1.59;100.00;97537.41;4995674;28;20476;-77
2024/01/15 05:02:33;;;;;;;12.45;2.60;;;;;;;1.58;100.00;97525.25;4982674;28;20046;-76
2024/01/15 05:04:58;;;;;;;18.30;2.58;;;;;;;1.67;100.00;97547.81;4969475;28;20022;-76
2024/01/15 05:07:24;;;;;;;17.53;2.83;;;;;;;1.58;100.00;97534.97;4999911;28;20049;-76
2024/01/15 05:09:49;;;;;;;8.20;2.67;;;;;;;1.49;100.00;97515.81;5001125;28;20346;-76
2024/01/15 05:12:14;;;;;;;24.23;3.87;;;;;;;1.37;100.00;97515.47;5012567;28;20288;-76
2024/01/15 05:14:40;;;;;;;17.20;3.70;;;;;;;1.47;100.00;97559.88;5005384;28;20297;-75
2024/01/15 05:17:05;;;;;;;17.02;3.20;;;;;;;1.37;100.00;97562.78;4990658;28;20285;-76
2024/01/15 05:19:30;;;;;;;16.67;3.83;;;;;;;1.38;100.00;97587.25;4981257;28;20034;-77
2024/01/15 05:21:56;;;;;;;18.05;3.30;;;;;;;1.37;100.00;97604.84;4999489;28;20034;-76
2024/01/15 05:24:21;;;;;;;19.23;2.78;;;;;;;1.35;100.00;97625.25;4987903;28;20117;-76
2024/01/15 05:26:47;;;;;;;17.67;3.92;;;;;;;1.35;100.00;97630.50;4975882;28;20035;-76
2024/01/15 05:29:12;;;;;;;15.98;2.45;;;;;;;1.38;100.00;97614.38;4992528;28;20050;-77
2024/01/15 05:31:37;;;;;;;17.00;2.63;;;;;;;1.30;100.00;97574.22;4994869;28;20027;-76
2024/01/15 05:34:02;;;;;;;16.17;2.83;;;;;;;1.30;100.00;97553.19;4992012;28;20101;-76
2024/01/15 05:36:28;;;;;;;30.13;5.18;;;;;;;1.36;100.00;97547.19;5010996;28;20503;-76
2024/01/15 05:38:53;;;;;;;21.50;5.32;;;;;;;1.38;100.00;97530.28;4984204;28;20025;-76
2024/01/15 05:41:19;;;;;;;31.27;4.07;;;;;;;1.31;100.00;97492.56;5004277;28;20045;-76
2024/01/15 05:43:44;;;;;;;18.77;5.20;;;;;;;1.50;100.00;97477.19;5003198;28;20132;-76
2024/01/15 05:46:09;;;;;;;19.77;2.95;;;;;;;1.48;100.00;97445.84;4962822;28;20076;-76
2024/01/15 05:48:34;;;;;;;19.17;2.42;;;;;;;1.43;100.00;97406.16;4980462;28;20050;-77
2024/01/15 05:51:00;;;;;;;16.07;2.37;;;;;;;1.48;100.00;97409.88;5008304;28;20029;-77
2024/01/15 05:53:25;;;;;;;19.08;3.78;;;;;;;1.51;100.00;97385.00;4986853;28;20292;-76
2024/01/15 05:55:51;;;;;;;18.55;2.90;;;;;;;1.44;100.00;97347.31;5008047;28;20099;-77
2024/01/15 05:58:16;;;;;;;12.13;2.45;;;;;;;1.47;100.00;97363.56;4991969;28;20041;-76
2024/01/15 06:00:41;;;;;;;16.35;2.38;;;;;;;1.42;100.00;97363.28;4975077;28;20439;-76
2024/01/15 06:03:07;;;;;;;18.70;2.60;;;;;;;1.39;100.00;97379.44;4972587;28;20045;-77
2024/01/15 06:05:32;;;;;;;16.75;2.33;;;;;;;1.35;100.00;97387.88;4991250;28;20041;-77
2024/01/15 06:07:58;;;;;;;17.90;3.53;;;;;;;1.21;100.00;97358.00;5009294;28;20622;-76
2024/01/15 06:10:23;;;;;;;14.00;3.20;;;;;;;1.22;100.00;97355.19;4991743;28;20648;-76
2024/01/15 06:12:49;;;;;;;14.02;3.13;;;;;;;1.29;100.00;97331.63;4991748;28;20947;-76
2024/01/15 06:15:14;;;;;;;12.82;3.22;;;;;;;1.40;100.00;97290.88;4975085;28;20026;-76
2024/01/15 06:17:39;;;;;;;12.90;2.83;;;;;;;1.36;100.00;97292.22;5003990;28;20136;-75
2024/01/15 06:20:05;;;;;;;10.65;1.80;;;;;;;1.31;100.00;97255.19;5008856;28;20037;-76
2024/01/15 06:22:31;;;;;;;17.20;2.35;;;;;;;1.31;100.00;97270.97;5000898;28;20481;-76
2024/01/15 06:24:56;;;;;;;30.85;3.67;;;;;;;1.37;100.00;97354.34;4978860;28;20038;-77
2024/01/15 06:27:22;;;;;;;18.45;2.90;;;;;;;1.35;100.00;97327.41;4990444;28;20091;-77
2024/01/15 06:29:47;;;;;;;31.65;3.38;;;;;;;1.11;100.00;97316.25;5008397;28;20024;-77
2024/01/15 06:32:13;;;;;;;12.02;2.05;;;;;;;1.17;100.00;97378.59;5006878;28;20057;-76
2024/01/15 06:34:39;;;;;;;18.13;3.42;;;;;;;1.21;100.00;97386.91;4991464;28;20382;-76
2024/01/15 06:37:04;;;;;;;11.38;1.73;;;;;;;1.15;100.00;97325.41;4981604;28;20042;-77
2024/01/15 06:39:30;;;;;;;16.20;2.75;;;;;;;1.14;100.00;97359.75;5007211;28;20026;-77
2024/01/15 06:41:55;;;;;;;20.77;3.88;;;;;;;1.20;100.00;97370.34;4997278;28;20065;-77
2024/01/15 06:44:21;;;;;;;10.10;1.88;;;;;;;1.20;100.00;97386.09;4984745;28;20511;-78
2024/01/15 06:46:47;;;;;;;16.80;2.70;;;;;;;1.19;100.00;97370.50;4973662;28;20108;-77
2024/01/15 06:49:13;;;;;;;10.45;3.17;;;;;;;1.24;100.00;97415.44;4991633;28;20040;-77
2024/01/15 06:51:38;;;;;;;15.32;4.05;;;;;;;1.29;100.00;97393.84;5003269;28;20034;-76
2024/01/15 06:54:04;;;;;;;12.90;2.47;;;;;;;1.30;100.00;97372.66;4983634;28;20041;-76
2024/01/15 06:56:29;;;;;;;16.83;2.92;;;;;;;1.27;100.00;97375.66;5007663;28;20040;-76
2024/01/15 06:58:55;;;;;;;18.67;3.08;;;;;;;1.31;100.00;97412.88;4966788;28;20045;-77
2024/01/15 07:01:20;;;;;;;18.83;2.65;;;;;;;1.23;100.00;97427.78;4993883;28;20042;-76
2024/01/15 07:03:46;;;;;;;14.50;4.90;;;;;;;1.22;100.00;97441.09;5001061;28;20038;-76
2024/01/15 07:06:12;;;;;;;19.15;2.80;;;;;;;1.20;100.00;97449.16;4987966;28;20019;-77
2024/01/15 07:08:40;;;;;;;16.55;3.33;;;;;;;1.12;100.00;97446.63;5020908;28;20045;-76
2024/01/15 07:11:05;;;;;;;16.40;2.88;;;;;;;1.15;100.00;97485.69;4992479;28;20030;-76
2024/01/15 07:13:31;;;;;;;5.55;1.75;;;;;;;1.14;100.00;97515.56;5004098;28;20030;-76
2024/01/15 07:15:57;;;;;;;14.73;2.90;;;;;;;1.10;100.00;97522.22;4991109;28;20033;-77
2024/01/15 07:18:23;;;;;;;8.73;1.95;;;;;;;1.12;100.00;97535.97;5010770;28;20108;-75
2024/01/15 07:20:48;;;;;;;8.43;2.10;;;;;;;1.29;100.00;97568.16;5001684;28;20034;-78
2024/01/15 07:23:14;;;;;;;6.72;2.00;;;;;;;1.27;100.00;97563.06;5009246;28;20065;-75
2024/01/15 07:25:39;;;;;;;21.33;3.53;;;;;;;1.22;100.00;97570.69;4986970;28;20511;-76
2024/01/15 07:28:05;;;;;;;12.60;2.47;;;;;;;1.23;100.00;97582.81;5010467;28;20436;-77
2024/01/15 07:30:30;;;;;;;17.27;2.53;;;;;;;1.20;100.00;97648.88;5008454;28;20038;-77
2024/01/15 07:32:56;;;;;;;11.15;2.40;;;;;;;1.32;100.00;97678.19;5006350;28;20029;-77
2024/01/15 07:35:21;;;;;;;20.40;3.45;;;;;;;1.26;100.00;97684.13;4987905;28;20128;-75
2024/01/15 07:37:46;;;;;;;12.87;3.10;;;;;;;1.36;100.00;97704.91;4997976;28;20043;-76
2024/01/15 07:40:12;;;;;;;14.05;3.42;;;;;;;1.28;100.00;97679.53;4967385;28;20293;-76
2024/01/15 07:42:38;;;;;;;11.13;2.60;;;;;;;1.39;100.00;97715.91;5001006;28;20065;-77
2024/01/15 07:45:04;;;;;;;9.23;2.47;;;;;;;1.33;100.00;97700.03;4992429;28;20050;-77
2024/01/15 07:47:30;;;;;;;15.43;3.38;;;;;;;1.45;100.00;97730.97;4992293;28;20034;-77
2024/01/15 07:49:56;;;;;;;13.10;3.08;;;;;;;1.43;100.00;97734.78;4996198;28;20103;-77
2024/01/15 07:52:21;;;;;;;13.32;2.78;;;;;;;1.36;100.00;97774.09;5000089;28;20628;-77
2024/01/15 07:54:46;;;;;;;13.32;2.90;;;;;;;1.49;100.00;97831.34;5003173;28;20037;-77
2024/01/15 07:57:12;;;;;;;19.77;2.72;;;;;;;1.45;100.00;97809.00;5002574;28;20088;-77
2024/01/15 07:59:37;;;;;;;16.63;3.03;;;;;;;1.34;100.00;97812.88;4987943;28;20119;-77
2024/01/15 08:02:03;;;;;;;11.20;2.67;;;;;;;1.35;100.00;97814.50;4989753;28;20073;-77
2024/01/15 08:04:28;;;;;;;8.45;2.47;;;;;;;1.20;100.00;97748.75;5002928;28;20503;-76
2024/01/15 08:06:54;;;;;;;11.60;2.35;;;;;;;1.20;100.00;97717.22;5007277;28;20558;-77
2024/01/15 08:09:20;;;;;;;9.18;1.48;;;;;;;1.42;100.00;97712.09;5004029;28;20033;-76
2024/01/15 08:11:45;;;;;;;16.63;3.17;;;;;;;1.44;100.00;97683.81;5004402;28;20496;-77
2024/01/15 08:14:11;;;;;;;12.90;1.60;;;;;;;1.35;100.00;97561.34;5004159;28;20126;-76
2024/01/15 08:16:37;;;;;;;9.48;1.20;;;;;;;1.20;100.00;97477.25;5005081;28;20061;-77
2024/01/15 08:19:03;;;;;;;6.30;1.17;;;;;;;1.37;100.00;97454.22;4988361;28;20119;-77
2024/01/15 08:21:29;;;;;;;8.23;1.58;;;;;;;1.29;100.00;97380.72;4998298;28;20038;-77
2024/01/15 08:23:56;;;;;;;8.93;2.03;;;;;;;1.41;100.00;97355.59;4997375;28;20057;-76
2024/01/15 08:26:22;;;;;;;7.40;1.52;;;;;;;1.36;100.00;97305.38;5004383;28;20057;-76
2024/01/15 08:28:48;;;;;;;6.05;1.40;;;;;;;1.26;100.00;97227.69;5004044;28;20038;-78
2024/01/15 08:31:13;;;;;;;3.13;0.80;;;;;;;1.25;100.00;97207.66;5004659;28;20025;-77
2024/01/15 08:33:38;;;;;;;5.57;1.00;;;;;;;1.36;100.00;97179.22;5010101;28;20508;-77
2024/01/15 08:36:04;;;;;;;6.25;0.90;;;;;;;1.32;100.00;97159.59;4974219;28;20121;-77
2024/01/15 08:38:29;;;;;;;7.45;0.98;;;;;;;1.64;100.00;97103.78;4989207;28;20061;-77
2024/01/15 08:40:56;;;;;;;7.93;1.42;;;;;;;1.62;100.00;97047.94;5009032;28;20080;-77
2024/01/15 08:43:22;;;;;;;7.50;0.95;;;;;;;1.99;100.00;97081.84;5024759;28;20472;-77
2024/01/15 08:45:48;;;;;;;6.10;1.25;;;;;;;2.10;100.00;97055.78;5003739;28;20041;-76
2024/01/15 08:48:13;;;;;;;;;;;;;;;2.56;100.00;96998.13;4996453;28;20037;-77
2024/01/15 08:50:38;;;;;;;3.03;0.80;;;;;;;3.25;100.00;96968.59;5003727;28;20387;-77
2024/01/15 08:53:04;;;;;;;13.57;1.90;;;;;;;3.62;100.00;96865.19;5002706;28;20042;-77
2024/01/15 08:55:29;;;;;;;5.82;1.52;;;;;;;3.58;100.00;96530.69;4989950;28;20353;-77
2024/01/15 08:57:55;;;;;;;10.40;1.98;;;;;;;3.84;100.00;96472.50;5004804;28;20033;-77
2024/01/15 09:00:20;;;;;;;6.23;0.80;;;;;;;3.68;100.00;96255.03;4994172;28;20048;-77
2024/01/15 09:02:45;;;;;;;4.60;1.10;;;;;;;3.31;100.00;96229.66;5011167;28;20293;-76
2024/01/15 09:05:11;;;;;;;7.10;0.93;;;;;;;3.40;100.00;96318.97;4977914;28;20297;-77
2024/01/15 09:07:36;;;;;;;4.05;1.45;;;;;;;2.51;100.00;96033.31;4977542;28;20030;-76
2024/01/15 09:10:02;;;;;;;8.15;2.08;;;;;;;2.82;100.00;96251.84;4992401;28;20030;-78
2024/01/15 09:12:27;;;;;;;8.05;1.00;;;;;;;3.27;100.00;96455.19;4993301;28;20541;-77
2024/01/15 09:14:53;;;;;;;4.78;0.65;;;;;;;3.78;100.00;96461.84;4992637;28;20041;-77
2024/01/15 09:17:20;;;;;;;11.43;1.42;;;;;;;2.93;100.00;96101.75;4990961;28;20049;-77
2024/01/15 09:19:45;;;;;;;2.58;0.63;;;;;;;2.46;100.00;96079.78;5002577;28;20046;-76
2024/01/15 09:22:12;;;;;;;3.78;0.90;;;;;;;2.31;100.00;96173.09;4990002;28;20048;-76
2024/01/15 09:24:40;;;;;;;4.97;0.95;;;;;;;2.21;100.00;96156.25;4995670;28;20121;-77
2024/01/15 09:27:05;;;;;;;2.08;0.73;;;;;;;1.78;100.00;96105.34;4990400;28;20033;-76
2024/01/15 09:29:31;;;;;;;3.80;1.05;;;;;;;2.03;100.00;96288.56;4978619;28;20049;-76
2024/01/15 09:31:57;;;;;;;2.40;0.70;;;;;;;1.81;100.00;96204.03;5005006;28;20026;-78
2024/01/15 09:34:22;;;;;;;3.92;1.15;;;;;;;1.53;100.00;96210.56;5004085;28;20040;-76
2024/01/15 09:36:48;;;;;;;5.63;0.93;;;;;;;1.69;100.00;96385.34;4977407;28;20563;-77
2024/01/15 09:39:15;;;;;;;;;;;;;;;1.49;100.00;96338.16;4999912;28;20052;-76
2024/01/15 09:41:41;;;;;;;8.05;1.80;;;;;;;1.73;100.00;96461.97;5014417;28;19961;-77
2024/01/15 09:44:07;;;;;;;5.25;0.70;;;;;;;1.34;100.00;96270.16;4986687;28;20037;-77
2024/01/15 09:46:34;;;;;;;6.05;1.17;;;;;;;1.74;100.00;96495.97;4976974;28;20061;-76
2024/01/15 09:49:00;;;;;;;5.78;1.02;;;;;;;2.15;100.00;96542.06;4982815;28;20237;-77
2024/01/15 09:51:25;;;;;;;4.38;1.00;;;;;;;2.66;100.00;96619.31;4998182;28;20042;-76
2024/01/15 09:53:52;;;;;;;5.32;0.80;;;;;;;2.87;100.00;96452.19;5013643;28;20042;-76
2024/01/15 09:56:17;;;;;;;7.10;0.95;;;;;;;2.92;100.00;96415.44;5001542;28;20155;-75
2024/01/15 09:58:44;;;;;;;5.25;1.00;;;;;;;3.54;100.00;96376.56;5025352;28;20042;-77
2024/01/15 10:01:10;;;;;;;1.13;0.50;;;;;;;3.26;100.00;96258.53;4980812;28;20094;-77
2024/01/15 10:03:37;;;;;;;2.13;0.68;;;;;;;3.46;100.00;96183.59;5009841;28;20409;-75
2024/01/15 10:06:04;;;;;;;3.45;0.80;;;;;;;3.25;100.00;96172.56;5004283;28;20401;-77
2024/01/15 10:08:29;;;;;;;5.35;0.82;;;;;;;3.54;100.00;96148.97;5000381;28;20027;-75
2024/01/15 10:10:55;;;;;;;9.07;1.15;;;;;;;3.09;100.00;96020.41;5015164;28;20044;-75
2024/01/15 10:13:20;;;;;;;11.00;2.33;;;;;;;3.34;100.00;96221.28;5009377;28;20099;-75
2024/01/15 10:15:49;;;;;;;3.28;0.98;;;;;;;3.50;100.00;96234.84;5003852;28;20420;-76
2024/01/15 10:18:15;;;;;;;3.63;1.08;;;;;;;3.38;100.00;96111.72;5000581;28;20038;-77
2024/01/15 10:20:40;;;;;;;7.70;1.38;;;;;;;3.10;100.00;95959.56;4987672;28;20128;-76
2024/01/15 10:23:06;;;;;;;1.83;0.80;;;;;;;2.95;100.00;95994.31;4991221;28;20116;-76
2024/01/15 10:25:31;;;;;;;2.67;1.03;;;;;;;2.68;100.00;96040.56;5003608;28;20040;-76
2024/01/15 10:28:04;;;;;;;3.45;0.80;;;;;;;3.18;100.00;96227.22;4994286;28;20473;-77
2024/01/15 10:30:31;;;;;;;4.53;1.10;;;;;;;2.88;100.00;96077.91;4998167;28;20130;-77
2024/01/15 10:33:01;;;;;;;7.40;0.65;;;;;;;3.17;100.00;96229.03;4992396;28;20033;-76
2024/01/15 10:35:31;;;;;;;6.03;0.73;;;;;;;2.84;100.00;96012.75;4988313;28;20035;-76
2024/01/15 10:37:57;;;;;;;2.72;0.82;;;;;;;2.76;100.00;95974.38;5004005;28;20116;-77
2024/01/15 10:40:23;;;;;;;3.25;0.77;;;;;;;2.29;99.64;95858.56;4990457;28;20077;-77
2024/01/15 10:42:48;;;;;;;8.40;1.02;;;;;;;2.11;99.57;95856.88;5007755;28;20112;-77
2024/01/15 10:45:14;;;;;;;3.30;0.60;;;;;;;1.80;100.00;95971.84;4986761;28;20101;-77
2024/01/15 10:47:41;;;;;;;5.45;1.50;;;;;;;1.62;100.00;95937.72;4980361;28;20027;-77
2024/01/15 10:50:07;;;;;;;1.05;0.90;;;;;;;1.87;100.00;96125.06;4985834;28;20060;-77
2024/01/15 10:52:40;;;;;;;4.50;1.00;;;;;;;2.28;100.00;96263.00;5003834;28;20509;-76
2024/01/15 10:55:09;;;;;;;2.80;0.80;;;;;;;2.77;100.00;96338.63;5008015;28;20027;-76
2024/01/15 10:57:38;;;;;;;6.47;0.80;;;;;;;2.57;99.64;96144.00;4983020;28;20030;-77
2024/01/15 11:00:08;;;;;;;3.97;0.90;;;;;;;2.60;99.46;96175.97;5002492;28;20038;-77
2024/01/15 11:02:36;;;;;;;1.13;0.60;;;;;;;2.65;99.70;96251.66;4978653;28;20036;-76
2024/01/15 11:05:01;;;;;;;1.85;0.80;;;;;;;2.70;99.76;96246.53;4986926;28;20468;-77
2024/01/15 11:07:29;;;;;;;2.33;0.52;;;;;;;2.40;99.15;96170.97;5000266;28;20041;-76
2024/01/15 11:09:55;;;;;;;1.83;0.70;;;;;;;2.57;98.86;96197.47;5007186;28;20868;-76
2024/01/15 11:12:20;;;;;;;7.78;1.00;;;;;;;1.85;98.99;96061.38;5003331;28;20068;-77
2024/01/15 11:14:47;;;;;;;3.80;1.00;;;;;;;2.24;100.00;96375.00;5024502;28;20108;-76
2024/01/15 11:17:13;;;;;;;3.10;0.70;;;;;;;2.33;100.00;96367.63;4994079;28;20037;-77
2024/01/15 11:19:43;;;;;;;5.38;0.80;;;;;;;2.49;100.00;96493.44;4974393;28;20513;-77
2024/01/15 11:22:18;;;;;;;7.18;1.83;;;;;;;2.57;99.44;96313.31;4999226;28;20041;-75
2024/01/15 11:24:44;;;;;;;4.13;0.85;;;;;;;2.80;100.00;96489.13;4990869;28;20121;-76
2024/01/15 11:27:09;;;;;;;6.80;1.40;;;;;;;3.16;99.57;96495.44;4999884;28;20662;-76